Bryceland, Louisiana
Current Conditions -  °F | °C
As of 1:15 PM on Thursday 18 Dec 2014 (Local Time) from KRSN Reporting Station
Overcast Overcast  
Wind Chill: 50°   Ceiling: 2000
Heat Index: 50°   Visibility: 10mi
Dew Point: 47°   Wind: 0mph
Humidity: 87%   Direction: NA
Pressure: 30.18"   Gusts: NA
Location:  32.3029°N, 92.924°W
Report Text: KRSN 181915Z AUTO 00000KT 10SM SCT009 OVC020 10/08 A3018 RMK AO2 T01010081
Loading
Personal Weather Stations






























Interactive Weather Map New forecast layout! Learn more

10-Day Weather Forecast

Advertisements
Track Severe Weather on mobile